sensor_id;sensor_type;location;lat;lon;timestamp;P1;durP1;ratioP1;P2;durP2;ratioP2
59922;SDS011;45778;51.142;3.732;2023-02-19T00:01:19;25.92;;;15.13;;
59922;SDS011;45778;51.142;3.732;2023-02-19T00:03:48;23.27;;;15.35;;
59922;SDS011;45778;51.142;3.732;2023-02-19T00:06:24;24.05;;;15.05;;
59922;SDS011;45778;51.142;3.732;2023-02-19T00:08:51;26.55;;;15.48;;
59922;SDS011;45778;51.142;3.732;2023-02-19T00:11:18;22.25;;;13.18;;
59922;SDS011;45778;51.142;3.732;2023-02-19T00:13:46;24.27;;;13.52;;
59922;SDS011;45778;51.142;3.732;2023-02-19T00:16:14;21.45;;;13.23;;
59922;SDS011;45778;51.142;3.732;2023-02-19T00:18:44;21.90;;;12.15;;
59922;SDS011;45778;51.142;3.732;2023-02-19T00:21:10;19.95;;;10.82;;
59922;SDS011;45778;51.142;3.732;2023-02-19T00:23:37;18.85;;;10.43;;
59922;SDS011;45778;51.142;3.732;2023-02-19T00:26:03;20.10;;;10.52;;
59922;SDS011;45778;51.142;3.732;2023-02-19T00:28:34;17.88;;;9.63;;
59922;SDS011;45778;51.142;3.732;2023-02-19T00:31:06;17.80;;;9.75;;
59922;SDS011;45778;51.142;3.732;2023-02-19T00:33:33;13.38;;;8.05;;
59922;SDS011;45778;51.142;3.732;2023-02-19T00:36:00;16.98;;;8.32;;
59922;SDS011;45778;51.142;3.732;2023-02-19T00:38:26;15.48;;;7.50;;
59922;SDS011;45778;51.142;3.732;2023-02-19T00:40:52;16.88;;;6.90;;
59922;SDS011;45778;51.142;3.732;2023-02-19T00:43:18;14.02;;;5.93;;
59922;SDS011;45778;51.142;3.732;2023-02-19T00:45:44;14.23;;;6.28;;
59922;SDS011;45778;51.142;3.732;2023-02-19T00:48:09;12.25;;;5.32;;
59922;SDS011;45778;51.142;3.732;2023-02-19T00:50:35;17.48;;;5.97;;
59922;SDS011;45778;51.142;3.732;2023-02-19T00:53:01;12.63;;;5.32;;
59922;SDS011;45778;51.142;3.732;2023-02-19T00:55:26;10.88;;;4.93;;
59922;SDS011;45778;51.142;3.732;2023-02-19T00:57:52;12.77;;;4.57;;
59922;SDS011;45778;51.142;3.732;2023-02-19T01:00:18;12.25;;;4.55;;
59922;SDS011;45778;51.142;3.732;2023-02-19T01:02:44;11.55;;;4.53;;
59922;SDS011;45778;51.142;3.732;2023-02-19T01:05:09;14.32;;;4.20;;
59922;SDS011;45778;51.142;3.732;2023-02-19T01:07:35;14.60;;;4.53;;
59922;SDS011;45778;51.142;3.732;2023-02-19T01:10:02;9.15;;;4.07;;
59922;SDS011;45778;51.142;3.732;2023-02-19T01:12:28;13.55;;;5.20;;
59922;SDS011;45778;51.142;3.732;2023-02-19T01:14:55;10.95;;;4.38;;
59922;SDS011;45778;51.142;3.732;2023-02-19T01:17:21;10.48;;;3.63;;
59922;SDS011;45778;51.142;3.732;2023-02-19T01:19:47;8.98;;;3.88;;
59922;SDS011;45778;51.142;3.732;2023-02-19T01:22:13;12.50;;;4.03;;
59922;SDS011;45778;51.142;3.732;2023-02-19T01:24:38;10.10;;;3.15;;
59922;SDS011;45778;51.142;3.732;2023-02-19T01:27:04;7.75;;;3.38;;
59922;SDS011;45778;51.142;3.732;2023-02-19T01:29:30;11.00;;;3.78;;
59922;SDS011;45778;51.142;3.732;2023-02-19T01:31:56;8.10;;;3.42;;
59922;SDS011;45778;51.142;3.732;2023-02-19T01:34:21;9.02;;;3.25;;
59922;SDS011;45778;51.142;3.732;2023-02-19T01:36:47;9.35;;;2.88;;
59922;SDS011;45778;51.142;3.732;2023-02-19T01:39:13;11.00;;;3.88;;
59922;SDS011;45778;51.142;3.732;2023-02-19T01:41:39;10.73;;;3.53;;
59922;SDS011;45778;51.142;3.732;2023-02-19T01:46:42;12.05;;;2.90;;
59922;SDS011;45778;51.142;3.732;2023-02-19T01:49:10;11.80;;;3.63;;
59922;SDS011;45778;51.142;3.732;2023-02-19T01:51:53;10.25;;;2.33;;
59922;SDS011;45778;51.142;3.732;2023-02-19T01:54:30;10.70;;;2.78;;
59922;SDS011;45778;51.142;3.732;2023-02-19T01:56:58;9.43;;;2.33;;
59922;SDS011;45778;51.142;3.732;2023-02-19T01:59:27;9.77;;;2.42;;
59922;SDS011;45778;51.142;3.732;2023-02-19T02:01:53;7.57;;;2.65;;
59922;SDS011;45778;51.142;3.732;2023-02-19T02:04:19;8.60;;;2.33;;
59922;SDS011;45778;51.142;3.732;2023-02-19T02:06:54;9.60;;;2.13;;
59922;SDS011;45778;51.142;3.732;2023-02-19T02:09:22;12.98;;;3.05;;
59922;SDS011;45778;51.142;3.732;2023-02-19T02:12:11;12.10;;;2.58;;
59922;SDS011;45778;51.142;3.732;2023-02-19T02:14:39;9.82;;;2.05;;
59922;SDS011;45778;51.142;3.732;2023-02-19T02:22:48;9.45;;;2.80;;
59922;SDS011;45778;51.142;3.732;2023-02-19T02:30:42;10.23;;;2.15;;
59922;SDS011;45778;51.142;3.732;2023-02-19T02:33:24;10.95;;;2.25;;
59922;SDS011;45778;51.142;3.732;2023-02-19T02:36:05;15.95;;;2.15;;
59922;SDS011;45778;51.142;3.732;2023-02-19T02:38:39;9.07;;;2.50;;
59922;SDS011;45778;51.142;3.732;2023-02-19T02:41:08;14.10;;;2.38;;
59922;SDS011;45778;51.142;3.732;2023-02-19T02:43:35;10.75;;;1.70;;
59922;SDS011;45778;51.142;3.732;2023-02-19T02:46:01;9.52;;;2.53;;
59922;SDS011;45778;51.142;3.732;2023-02-19T02:48:34;7.80;;;1.88;;
59922;SDS011;45778;51.142;3.732;2023-02-19T02:54:09;8.32;;;2.40;;
59922;SDS011;45778;51.142;3.732;2023-02-19T02:56:57;10.50;;;1.50;;
59922;SDS011;45778;51.142;3.732;2023-02-19T02:59:28;11.93;;;2.50;;
59922;SDS011;45778;51.142;3.732;2023-02-19T03:02:13;12.82;;;2.47;;
59922;SDS011;45778;51.142;3.732;2023-02-19T03:08:03;9.85;;;1.63;;
59922;SDS011;45778;51.142;3.732;2023-02-19T03:10:56;8.07;;;1.77;;
59922;SDS011;45778;51.142;3.732;2023-02-19T03:13:55;7.13;;;2.00;;
59922;SDS011;45778;51.142;3.732;2023-02-19T03:16:47;7.38;;;1.77;;
59922;SDS011;45778;51.142;3.732;2023-02-19T03:19:34;12.13;;;2.03;;
59922;SDS011;45778;51.142;3.732;2023-02-19T03:22:16;11.40;;;1.67;;
59922;SDS011;45778;51.142;3.732;2023-02-19T03:25:09;14.90;;;2.55;;
59922;SDS011;45778;51.142;3.732;2023-02-19T03:27:57;15.57;;;2.10;;
59922;SDS011;45778;51.142;3.732;2023-02-19T03:30:30;10.65;;;2.50;;
59922;SDS011;45778;51.142;3.732;2023-02-19T03:33:03;12.35;;;2.20;;
59922;SDS011;45778;51.142;3.732;2023-02-19T03:35:35;11.27;;;2.20;;
59922;SDS011;45778;51.142;3.732;2023-02-19T03:46:42;11.25;;;2.25;;
59922;SDS011;45778;51.142;3.732;2023-02-19T03:49:15;12.45;;;2.63;;
59922;SDS011;45778;51.142;3.732;2023-02-19T03:57:30;13.75;;;2.83;;
59922;SDS011;45778;51.142;3.732;2023-02-19T04:00:46;15.70;;;2.08;;
59922;SDS011;45778;51.142;3.732;2023-02-19T04:05:39;16.10;;;2.20;;
59922;SDS011;45778;51.142;3.732;2023-02-19T04:08:13;13.53;;;2.27;;
59922;SDS011;45778;51.142;3.732;2023-02-19T04:10:44;9.40;;;2.35;;
59922;SDS011;45778;51.142;3.732;2023-02-19T04:13:25;17.13;;;2.85;;
59922;SDS011;45778;51.142;3.732;2023-02-19T04:15:57;14.07;;;2.45;;
59922;SDS011;45778;51.142;3.732;2023-02-19T04:18:37;16.95;;;2.63;;
59922;SDS011;45778;51.142;3.732;2023-02-19T04:21:05;17.65;;;3.60;;
59922;SDS011;45778;51.142;3.732;2023-02-19T04:23:33;11.68;;;2.00;;
59922;SDS011;45778;51.142;3.732;2023-02-19T04:26:03;17.15;;;2.40;;
59922;SDS011;45778;51.142;3.732;2023-02-19T04:28:30;14.68;;;3.35;;
59922;SDS011;45778;51.142;3.732;2023-02-19T04:30:56;11.10;;;2.00;;
59922;SDS011;45778;51.142;3.732;2023-02-19T04:33:22;9.10;;;1.58;;
59922;SDS011;45778;51.142;3.732;2023-02-19T04:35:48;10.43;;;2.22;;
59922;SDS011;45778;51.142;3.732;2023-02-19T04:38:13;12.65;;;1.88;;
59922;SDS011;45778;51.142;3.732;2023-02-19T04:40:39;10.10;;;2.38;;
59922;SDS011;45778;51.142;3.732;2023-02-19T04:43:05;8.20;;;2.13;;
59922;SDS011;45778;51.142;3.732;2023-02-19T04:45:30;12.60;;;2.15;;
59922;SDS011;45778;51.142;3.732;2023-02-19T04:47:57;10.88;;;1.85;;
59922;SDS011;45778;51.142;3.732;2023-02-19T04:50:23;9.65;;;2.08;;
59922;SDS011;45778;51.142;3.732;2023-02-19T04:52:49;10.35;;;1.90;;
59922;SDS011;45778;51.142;3.732;2023-02-19T04:55:15;17.60;;;2.05;;
59922;SDS011;45778;51.142;3.732;2023-02-19T04:57:41;10.50;;;2.08;;
59922;SDS011;45778;51.142;3.732;2023-02-19T05:00:07;11.98;;;2.15;;
59922;SDS011;45778;51.142;3.732;2023-02-19T05:02:34;11.65;;;1.80;;
59922;SDS011;45778;51.142;3.732;2023-02-19T05:05:00;12.57;;;2.08;;
59922;SDS011;45778;51.142;3.732;2023-02-19T05:07:25;9.00;;;1.65;;
59922;SDS011;45778;51.142;3.732;2023-02-19T05:09:51;14.57;;;1.83;;
59922;SDS011;45778;51.142;3.732;2023-02-19T05:12:17;15.65;;;2.45;;
59922;SDS011;45778;51.142;3.732;2023-02-19T05:14:43;8.77;;;2.42;;
59922;SDS011;45778;51.142;3.732;2023-02-19T05:17:08;8.57;;;1.75;;
59922;SDS011;45778;51.142;3.732;2023-02-19T05:19:34;13.70;;;2.22;;
59922;SDS011;45778;51.142;3.732;2023-02-19T05:22:00;16.15;;;2.65;;
59922;SDS011;45778;51.142;3.732;2023-02-19T05:24:25;12.45;;;2.20;;
59922;SDS011;45778;51.142;3.732;2023-02-19T05:26:52;7.55;;;2.10;;
59922;SDS011;45778;51.142;3.732;2023-02-19T05:29:18;10.25;;;1.55;;
59922;SDS011;45778;51.142;3.732;2023-02-19T05:31:43;8.35;;;2.30;;
59922;SDS011;45778;51.142;3.732;2023-02-19T05:34:09;9.75;;;1.83;;
59922;SDS011;45778;51.142;3.732;2023-02-19T05:36:35;14.10;;;2.80;;
59922;SDS011;45778;51.142;3.732;2023-02-19T05:39:02;8.93;;;1.88;;
59922;SDS011;45778;51.142;3.732;2023-02-19T05:41:30;19.17;;;3.72;;
59922;SDS011;45778;51.142;3.732;2023-02-19T05:43:55;10.55;;;1.92;;
59922;SDS011;45778;51.142;3.732;2023-02-19T05:46:23;15.73;;;2.38;;
59922;SDS011;45778;51.142;3.732;2023-02-19T05:48:50;16.17;;;1.90;;
59922;SDS011;45778;51.142;3.732;2023-02-19T05:51:18;9.70;;;2.20;;
59922;SDS011;45778;51.142;3.732;2023-02-19T05:53:47;9.85;;;2.03;;
59922;SDS011;45778;51.142;3.732;2023-02-19T05:58:50;7.60;;;2.20;;
59922;SDS011;45778;51.142;3.732;2023-02-19T06:01:17;16.85;;;2.80;;
59922;SDS011;45778;51.142;3.732;2023-02-19T06:03:44;13.73;;;2.45;;
59922;SDS011;45778;51.142;3.732;2023-02-19T06:06:13;13.77;;;2.05;;
59922;SDS011;45778;51.142;3.732;2023-02-19T06:08:40;14.63;;;1.80;;
59922;SDS011;45778;51.142;3.732;2023-02-19T06:11:06;18.30;;;3.67;;
59922;SDS011;45778;51.142;3.732;2023-02-19T06:13:32;8.02;;;1.65;;
59922;SDS011;45778;51.142;3.732;2023-02-19T06:15:58;8.45;;;2.20;;
59922;SDS011;45778;51.142;3.732;2023-02-19T06:18:23;9.93;;;2.22;;
59922;SDS011;45778;51.142;3.732;2023-02-19T06:20:49;10.05;;;1.92;;
59922;SDS011;45778;51.142;3.732;2023-02-19T06:23:15;8.57;;;1.45;;
59922;SDS011;45778;51.142;3.732;2023-02-19T06:25:40;6.93;;;1.85;;
59922;SDS011;45778;51.142;3.732;2023-02-19T06:28:06;10.05;;;1.92;;
59922;SDS011;45778;51.142;3.732;2023-02-19T06:30:34;9.00;;;2.00;;
59922;SDS011;45778;51.142;3.732;2023-02-19T06:33:00;8.48;;;1.63;;
59922;SDS011;45778;51.142;3.732;2023-02-19T06:35:26;9.43;;;1.65;;
59922;SDS011;45778;51.142;3.732;2023-02-19T06:37:52;9.80;;;1.80;;
59922;SDS011;45778;51.142;3.732;2023-02-19T06:40:18;6.55;;;1.73;;
59922;SDS011;45778;51.142;3.732;2023-02-19T06:42:43;11.43;;;2.35;;
59922;SDS011;45778;51.142;3.732;2023-02-19T06:45:09;14.50;;;2.50;;
59922;SDS011;45778;51.142;3.732;2023-02-19T06:47:35;14.07;;;2.08;;
59922;SDS011;45778;51.142;3.732;2023-02-19T06:50:00;11.43;;;2.30;;
59922;SDS011;45778;51.142;3.732;2023-02-19T06:52:26;8.82;;;2.35;;
59922;SDS011;45778;51.142;3.732;2023-02-19T06:54:52;12.80;;;2.03;;
59922;SDS011;45778;51.142;3.732;2023-02-19T06:57:18;12.23;;;2.20;;
59922;SDS011;45778;51.142;3.732;2023-02-19T06:59:47;6.15;;;1.48;;
59922;SDS011;45778;51.142;3.732;2023-02-19T07:02:13;8.70;;;1.73;;
59922;SDS011;45778;51.142;3.732;2023-02-19T07:04:38;7.57;;;1.52;;
59922;SDS011;45778;51.142;3.732;2023-02-19T07:07:04;9.70;;;1.88;;
59922;SDS011;45778;51.142;3.732;2023-02-19T07:09:30;10.32;;;2.13;;
59922;SDS011;45778;51.142;3.732;2023-02-19T07:11:56;7.78;;;1.75;;
59922;SDS011;45778;51.142;3.732;2023-02-19T07:14:21;10.38;;;1.60;;
59922;SDS011;45778;51.142;3.732;2023-02-19T07:16:47;9.93;;;2.47;;
59922;SDS011;45778;51.142;3.732;2023-02-19T07:19:13;21.08;;;2.67;;
59922;SDS011;45778;51.142;3.732;2023-02-19T07:21:40;10.52;;;1.67;;
59922;SDS011;45778;51.142;3.732;2023-02-19T07:24:07;13.52;;;1.73;;
59922;SDS011;45778;51.142;3.732;2023-02-19T07:26:34;14.00;;;2.53;;
59922;SDS011;45778;51.142;3.732;2023-02-19T07:29:00;9.82;;;2.25;;
59922;SDS011;45778;51.142;3.732;2023-02-19T07:31:26;12.13;;;2.55;;
59922;SDS011;45778;51.142;3.732;2023-02-19T07:33:53;12.80;;;2.22;;
59922;SDS011;45778;51.142;3.732;2023-02-19T07:36:19;9.73;;;1.50;;
59922;SDS011;45778;51.142;3.732;2023-02-19T07:38:46;9.77;;;3.55;;
59922;SDS011;45778;51.142;3.732;2023-02-19T07:41:19;11.88;;;2.30;;
59922;SDS011;45778;51.142;3.732;2023-02-19T07:43:44;14.07;;;2.72;;
59922;SDS011;45778;51.142;3.732;2023-02-19T07:46:11;6.53;;;1.83;;
59922;SDS011;45778;51.142;3.732;2023-02-19T07:48:38;10.43;;;1.75;;
59922;SDS011;45778;51.142;3.732;2023-02-19T07:51:06;15.75;;;2.10;;
59922;SDS011;45778;51.142;3.732;2023-02-19T07:53:34;10.35;;;2.35;;
59922;SDS011;45778;51.142;3.732;2023-02-19T07:56:01;7.93;;;2.47;;
59922;SDS011;45778;51.142;3.732;2023-02-19T07:58:28;11.95;;;2.25;;
59922;SDS011;45778;51.142;3.732;2023-02-19T08:00:54;11.35;;;1.50;;
59922;SDS011;45778;51.142;3.732;2023-02-19T08:03:20;9.15;;;1.63;;
59922;SDS011;45778;51.142;3.732;2023-02-19T08:05:46;9.68;;;1.95;;
59922;SDS011;45778;51.142;3.732;2023-02-19T08:08:14;12.02;;;2.05;;
59922;SDS011;45778;51.142;3.732;2023-02-19T08:10:40;13.50;;;2.13;;
59922;SDS011;45778;51.142;3.732;2023-02-19T08:13:25;7.80;;;1.70;;
59922;SDS011;45778;51.142;3.732;2023-02-19T08:16:15;11.73;;;1.60;;
59922;SDS011;45778;51.142;3.732;2023-02-19T08:18:42;11.55;;;1.85;;
59922;SDS011;45778;51.142;3.732;2023-02-19T08:21:08;12.93;;;2.33;;
59922;SDS011;45778;51.142;3.732;2023-02-19T08:23:35;8.52;;;1.90;;
59922;SDS011;45778;51.142;3.732;2023-02-19T08:26:01;7.90;;;2.17;;
59922;SDS011;45778;51.142;3.732;2023-02-19T08:28:27;8.25;;;1.60;;
59922;SDS011;45778;51.142;3.732;2023-02-19T08:30:56;7.18;;;1.80;;
59922;SDS011;45778;51.142;3.732;2023-02-19T08:33:27;8.18;;;1.55;;
59922;SDS011;45778;51.142;3.732;2023-02-19T08:35:54;11.02;;;1.95;;
59922;SDS011;45778;51.142;3.732;2023-02-19T08:38:20;8.55;;;1.63;;
59922;SDS011;45778;51.142;3.732;2023-02-19T08:40:46;11.15;;;2.00;;
59922;SDS011;45778;51.142;3.732;2023-02-19T08:43:13;10.18;;;2.00;;
59922;SDS011;45778;51.142;3.732;2023-02-19T08:45:41;10.35;;;1.60;;
59922;SDS011;45778;51.142;3.732;2023-02-19T08:48:09;11.25;;;1.88;;
59922;SDS011;45778;51.142;3.732;2023-02-19T08:50:35;7.45;;;1.60;;
59922;SDS011;45778;51.142;3.732;2023-02-19T08:53:02;10.68;;;3.17;;
59922;SDS011;45778;51.142;3.732;2023-02-19T08:55:29;9.68;;;1.90;;
59922;SDS011;45778;51.142;3.732;2023-02-19T08:57:55;6.70;;;2.03;;
59922;SDS011;45778;51.142;3.732;2023-02-19T09:00:20;8.50;;;2.28;;
59922;SDS011;45778;51.142;3.732;2023-02-19T09:02:47;13.65;;;2.40;;
59922;SDS011;45778;51.142;3.732;2023-02-19T09:05:13;9.32;;;1.70;;
59922;SDS011;45778;51.142;3.732;2023-02-19T09:07:39;12.43;;;1.90;;
59922;SDS011;45778;51.142;3.732;2023-02-19T09:10:05;6.95;;;1.27;;
59922;SDS011;45778;51.142;3.732;2023-02-19T09:12:32;12.30;;;1.40;;
59922;SDS011;45778;51.142;3.732;2023-02-19T09:14:58;11.38;;;1.70;;
59922;SDS011;45778;51.142;3.732;2023-02-19T09:17:24;8.93;;;1.85;;
59922;SDS011;45778;51.142;3.732;2023-02-19T09:19:50;8.40;;;1.90;;
59922;SDS011;45778;51.142;3.732;2023-02-19T09:22:16;4.40;;;1.75;;
59922;SDS011;45778;51.142;3.732;2023-02-19T09:24:42;9.38;;;1.80;;
59922;SDS011;45778;51.142;3.732;2023-02-19T09:27:08;9.52;;;1.70;;
59922;SDS011;45778;51.142;3.732;2023-02-19T09:29:43;12.18;;;1.65;;
59922;SDS011;45778;51.142;3.732;2023-02-19T09:32:09;11.15;;;1.73;;
59922;SDS011;45778;51.142;3.732;2023-02-19T09:34:35;10.00;;;2.28;;
59922;SDS011;45778;51.142;3.732;2023-02-19T09:37:01;11.65;;;1.80;;
59922;SDS011;45778;51.142;3.732;2023-02-19T09:39:27;8.85;;;1.75;;
59922;SDS011;45778;51.142;3.732;2023-02-19T09:44:37;7.47;;;2.00;;
59922;SDS011;45778;51.142;3.732;2023-02-19T09:47:06;10.90;;;1.83;;
59922;SDS011;45778;51.142;3.732;2023-02-19T09:49:39;5.22;;;1.42;;
59922;SDS011;45778;51.142;3.732;2023-02-19T09:54:56;8.20;;;1.77;;
59922;SDS011;45778;51.142;3.732;2023-02-19T09:57:25;10.15;;;2.20;;
59922;SDS011;45778;51.142;3.732;2023-02-19T10:00:04;13.55;;;2.60;;
59922;SDS011;45778;51.142;3.732;2023-02-19T10:02:37;9.52;;;1.92;;
59922;SDS011;45778;51.142;3.732;2023-02-19T10:05:08;8.80;;;1.65;;
59922;SDS011;45778;51.142;3.732;2023-02-19T10:07:40;12.55;;;2.38;;
59922;SDS011;45778;51.142;3.732;2023-02-19T10:12:38;4.47;;;2.00;;
59922;SDS011;45778;51.142;3.732;2023-02-19T10:15:18;10.55;;;2.20;;
59922;SDS011;45778;51.142;3.732;2023-02-19T10:17:47;9.80;;;2.17;;
59922;SDS011;45778;51.142;3.732;2023-02-19T10:20:19;8.23;;;2.22;;
59922;SDS011;45778;51.142;3.732;2023-02-19T10:22:50;7.13;;;1.95;;
59922;SDS011;45778;51.142;3.732;2023-02-19T10:25:23;5.28;;;1.73;;
59922;SDS011;45778;51.142;3.732;2023-02-19T10:27:48;9.30;;;1.63;;
59922;SDS011;45778;51.142;3.732;2023-02-19T10:30:20;9.00;;;2.15;;
59922;SDS011;45778;51.142;3.732;2023-02-19T10:35:54;6.80;;;1.75;;
59922;SDS011;45778;51.142;3.732;2023-02-19T10:41:05;12.60;;;2.70;;
59922;SDS011;45778;51.142;3.732;2023-02-19T10:43:36;4.55;;;1.70;;
59922;SDS011;45778;51.142;3.732;2023-02-19T10:46:23;9.20;;;1.70;;
59922;SDS011;45778;51.142;3.732;2023-02-19T10:48:51;7.47;;;1.67;;
59922;SDS011;45778;51.142;3.732;2023-02-19T10:51:19;5.40;;;2.03;;
59922;SDS011;45778;51.142;3.732;2023-02-19T10:54:05;9.43;;;2.33;;
59922;SDS011;45778;51.142;3.732;2023-02-19T10:56:49;4.60;;;1.33;;
59922;SDS011;45778;51.142;3.732;2023-02-19T10:59:24;4.88;;;1.70;;
59922;SDS011;45778;51.142;3.732;2023-02-19T11:01:55;6.30;;;1.70;;
59922;SDS011;45778;51.142;3.732;2023-02-19T11:04:24;5.05;;;1.70;;
59922;SDS011;45778;51.142;3.732;2023-02-19T11:06:51;5.30;;;1.63;;
59922;SDS011;45778;51.142;3.732;2023-02-19T11:09:27;4.05;;;1.65;;
59922;SDS011;45778;51.142;3.732;2023-02-19T11:11:57;4.00;;;1.40;;
59922;SDS011;45778;51.142;3.732;2023-02-19T11:14:23;7.60;;;1.63;;
59922;SDS011;45778;51.142;3.732;2023-02-19T11:16:52;6.18;;;1.23;;
59922;SDS011;45778;51.142;3.732;2023-02-19T11:19:27;13.80;;;1.98;;
59922;SDS011;45778;51.142;3.732;2023-02-19T11:21:57;5.72;;;1.20;;
59922;SDS011;45778;51.142;3.732;2023-02-19T11:24:26;5.40;;;1.40;;
59922;SDS011;45778;51.142;3.732;2023-02-19T11:26:58;5.97;;;1.45;;
59922;SDS011;45778;51.142;3.732;2023-02-19T11:29:27;1.98;;;1.15;;
59922;SDS011;45778;51.142;3.732;2023-02-19T11:32:02;3.42;;;0.98;;
59922;SDS011;45778;51.142;3.732;2023-02-19T11:35:13;5.80;;;1.17;;
59922;SDS011;45778;51.142;3.732;2023-02-19T11:40:23;5.18;;;1.40;;
59922;SDS011;45778;51.142;3.732;2023-02-19T11:48:52;9.07;;;1.95;;
59922;SDS011;45778;51.142;3.732;2023-02-19T11:51:49;4.80;;;2.45;;
59922;SDS011;45778;51.142;3.732;2023-02-19T11:54:39;8.68;;;5.57;;
59922;SDS011;45778;51.142;3.732;2023-02-19T12:11:01;6.13;;;2.08;;
59922;SDS011;45778;51.142;3.732;2023-02-19T12:16:24;6.78;;;3.88;;
59922;SDS011;45778;51.142;3.732;2023-02-19T12:22:21;7.35;;;2.55;;
59922;SDS011;45778;51.142;3.732;2023-02-19T12:25:23;3.92;;;1.70;;
59922;SDS011;45778;51.142;3.732;2023-02-19T12:38:28;5.85;;;2.53;;
59922;SDS011;45778;51.142;3.732;2023-02-19T12:41:09;10.25;;;5.22;;
59922;SDS011;45778;51.142;3.732;2023-02-19T12:43:44;9.65;;;7.35;;
59922;SDS011;45778;51.142;3.732;2023-02-19T12:46:21;7.07;;;4.38;;
59922;SDS011;45778;51.142;3.732;2023-02-19T12:48:59;3.42;;;2.35;;
59922;SDS011;45778;51.142;3.732;2023-02-19T12:51:42;4.72;;;2.70;;
59922;SDS011;45778;51.142;3.732;2023-02-19T12:54:18;6.03;;;4.22;;
59922;SDS011;45778;51.142;3.732;2023-02-19T12:57:00;9.40;;;5.45;;
59922;SDS011;45778;51.142;3.732;2023-02-19T13:05:00;6.57;;;4.75;;
59922;SDS011;45778;51.142;3.732;2023-02-19T13:07:36;5.68;;;2.30;;
59922;SDS011;45778;51.142;3.732;2023-02-19T13:10:25;3.55;;;2.72;;
59922;SDS011;45778;51.142;3.732;2023-02-19T13:13:11;2.67;;;1.75;;
59922;SDS011;45778;51.142;3.732;2023-02-19T13:15:49;5.18;;;1.77;;
59922;SDS011;45778;51.142;3.732;2023-02-19T13:18:21;4.43;;;1.38;;
59922;SDS011;45778;51.142;3.732;2023-02-19T13:20:51;2.13;;;1.75;;
59922;SDS011;45778;51.142;3.732;2023-02-19T13:23:21;7.47;;;2.35;;
59922;SDS011;45778;51.142;3.732;2023-02-19T13:37:36;4.57;;;2.25;;
59922;SDS011;45778;51.142;3.732;2023-02-19T13:40:04;4.93;;;2.17;;
59922;SDS011;45778;51.142;3.732;2023-02-19T13:42:41;5.30;;;2.00;;
59922;SDS011;45778;51.142;3.732;2023-02-19T13:45:20;3.60;;;1.45;;
59922;SDS011;45778;51.142;3.732;2023-02-19T13:52:52;2.65;;;1.63;;
59922;SDS011;45778;51.142;3.732;2023-02-19T13:58:33;3.92;;;1.50;;
59922;SDS011;45778;51.142;3.732;2023-02-19T14:01:15;4.78;;;1.98;;
59922;SDS011;45778;51.142;3.732;2023-02-19T14:03:47;2.97;;;1.75;;
59922;SDS011;45778;51.142;3.732;2023-02-19T14:06:18;3.88;;;2.00;;
59922;SDS011;45778;51.142;3.732;2023-02-19T14:08:45;4.45;;;2.20;;
59922;SDS011;45778;51.142;3.732;2023-02-19T14:11:17;4.20;;;2.08;;
59922;SDS011;45778;51.142;3.732;2023-02-19T14:14:12;6.88;;;2.83;;
59922;SDS011;45778;51.142;3.732;2023-02-19T14:16:56;8.27;;;2.83;;
59922;SDS011;45778;51.142;3.732;2023-02-19T14:30:28;11.48;;;3.95;;
59922;SDS011;45778;51.142;3.732;2023-02-19T14:32:55;7.68;;;2.88;;
59922;SDS011;45778;51.142;3.732;2023-02-19T14:35:24;4.72;;;2.67;;
59922;SDS011;45778;51.142;3.732;2023-02-19T14:37:54;5.10;;;2.72;;
59922;SDS011;45778;51.142;3.732;2023-02-19T14:40:35;5.07;;;2.65;;
59922;SDS011;45778;51.142;3.732;2023-02-19T14:43:05;7.78;;;4.15;;
59922;SDS011;45778;51.142;3.732;2023-02-19T14:45:41;5.37;;;2.97;;
59922;SDS011;45778;51.142;3.732;2023-02-19T14:48:17;8.00;;;3.10;;
59922;SDS011;45778;51.142;3.732;2023-02-19T14:50:49;4.78;;;2.58;;
59922;SDS011;45778;51.142;3.732;2023-02-19T14:53:19;7.25;;;4.35;;
59922;SDS011;45778;51.142;3.732;2023-02-19T14:55:47;5.70;;;3.03;;
59922;SDS011;45778;51.142;3.732;2023-02-19T14:58:16;6.20;;;2.78;;
59922;SDS011;45778;51.142;3.732;2023-02-19T15:00:46;5.78;;;2.63;;
59922;SDS011;45778;51.142;3.732;2023-02-19T15:03:28;5.82;;;3.50;;
59922;SDS011;45778;51.142;3.732;2023-02-19T15:06:11;6.47;;;2.88;;
59922;SDS011;45778;51.142;3.732;2023-02-19T15:08:47;8.95;;;4.18;;
59922;SDS011;45778;51.142;3.732;2023-02-19T15:11:20;6.90;;;3.50;;
59922;SDS011;45778;51.142;3.732;2023-02-19T15:14:01;7.88;;;2.78;;
59922;SDS011;45778;51.142;3.732;2023-02-19T15:16:29;6.93;;;2.78;;
59922;SDS011;45778;51.142;3.732;2023-02-19T15:18:57;4.07;;;2.40;;
59922;SDS011;45778;51.142;3.732;2023-02-19T15:21:31;6.38;;;2.35;;
59922;SDS011;45778;51.142;3.732;2023-02-19T15:24:00;4.38;;;2.42;;
59922;SDS011;45778;51.142;3.732;2023-02-19T15:26:32;6.90;;;2.70;;
59922;SDS011;45778;51.142;3.732;2023-02-19T15:29:07;4.95;;;2.70;;
59922;SDS011;45778;51.142;3.732;2023-02-19T15:31:53;3.80;;;2.60;;
59922;SDS011;45778;51.142;3.732;2023-02-19T15:34:21;4.85;;;2.47;;
59922;SDS011;45778;51.142;3.732;2023-02-19T15:36:49;8.45;;;2.65;;
59922;SDS011;45778;51.142;3.732;2023-02-19T15:39:22;8.60;;;2.53;;
59922;SDS011;45778;51.142;3.732;2023-02-19T15:41:51;5.32;;;2.28;;
59922;SDS011;45778;51.142;3.732;2023-02-19T15:44:26;7.47;;;2.28;;
59922;SDS011;45778;51.142;3.732;2023-02-19T15:46:52;8.23;;;2.78;;
59922;SDS011;45778;51.142;3.732;2023-02-19T15:49:20;11.02;;;4.70;;
59922;SDS011;45778;51.142;3.732;2023-02-19T15:51:59;7.47;;;3.17;;
59922;SDS011;45778;51.142;3.732;2023-02-19T15:54:33;5.97;;;2.72;;
59922;SDS011;45778;51.142;3.732;2023-02-19T15:57:16;6.53;;;3.60;;
59922;SDS011;45778;51.142;3.732;2023-02-19T15:59:48;3.88;;;2.38;;
59922;SDS011;45778;51.142;3.732;2023-02-19T16:02:30;4.90;;;1.90;;
59922;SDS011;45778;51.142;3.732;2023-02-19T16:04:57;3.67;;;2.80;;
59922;SDS011;45778;51.142;3.732;2023-02-19T16:07:26;5.20;;;3.13;;
59922;SDS011;45778;51.142;3.732;2023-02-19T16:12:55;8.32;;;3.10;;
59922;SDS011;45778;51.142;3.732;2023-02-19T16:15:21;6.15;;;2.70;;
59922;SDS011;45778;51.142;3.732;2023-02-19T16:17:47;5.13;;;2.53;;
59922;SDS011;45778;51.142;3.732;2023-02-19T16:20:18;9.60;;;2.72;;
59922;SDS011;45778;51.142;3.732;2023-02-19T16:22:46;7.13;;;3.10;;
59922;SDS011;45778;51.142;3.732;2023-02-19T16:25:45;5.15;;;2.83;;
59922;SDS011;45778;51.142;3.732;2023-02-19T16:28:30;4.22;;;2.53;;
59922;SDS011;45778;51.142;3.732;2023-02-19T16:31:02;6.20;;;2.33;;
59922;SDS011;45778;51.142;3.732;2023-02-19T16:42:16;4.70;;;2.83;;
59922;SDS011;45778;51.142;3.732;2023-02-19T16:46:48;3.55;;;1.75;;
59922;SDS011;45778;51.142;3.732;2023-02-19T16:49:35;8.70;;;3.50;;
59922;SDS011;45778;51.142;3.732;2023-02-19T16:52:01;5.78;;;3.10;;
59922;SDS011;45778;51.142;3.732;2023-02-19T16:54:28;4.07;;;2.08;;
59922;SDS011;45778;51.142;3.732;2023-02-19T16:56:54;5.18;;;2.15;;
59922;SDS011;45778;51.142;3.732;2023-02-19T16:59:19;3.50;;;2.00;;
59922;SDS011;45778;51.142;3.732;2023-02-19T17:01:45;6.82;;;1.70;;
59922;SDS011;45778;51.142;3.732;2023-02-19T17:04:11;3.67;;;1.70;;
59922;SDS011;45778;51.142;3.732;2023-02-19T17:06:37;3.70;;;2.35;;
59922;SDS011;45778;51.142;3.732;2023-02-19T17:09:04;2.67;;;1.45;;
59922;SDS011;45778;51.142;3.732;2023-02-19T17:11:30;2.92;;;1.55;;
59922;SDS011;45778;51.142;3.732;2023-02-19T17:13:56;3.45;;;1.60;;
59922;SDS011;45778;51.142;3.732;2023-02-19T17:16:23;3.90;;;1.88;;
59922;SDS011;45778;51.142;3.732;2023-02-19T17:18:53;4.18;;;2.10;;
59922;SDS011;45778;51.142;3.732;2023-02-19T17:21:21;4.88;;;1.70;;
59922;SDS011;45778;51.142;3.732;2023-02-19T17:23:49;5.10;;;1.73;;